sensor_id;sensor_type;location;lat;lon;timestamp;temperature;humidity
18597;DHT22;9428;50.950;6.912;2023-11-19T00:02:29;10.50;99.90
18597;DHT22;9428;50.950;6.912;2023-11-19T00:05:17;10.60;99.90
18597;DHT22;9428;50.950;6.912;2023-11-19T00:08:06;10.50;99.90
18597;DHT22;9428;50.950;6.912;2023-11-19T00:10:54;10.50;99.90
18597;DHT22;9428;50.950;6.912;2023-11-19T00:13:44;10.70;99.90
18597;DHT22;9428;50.950;6.912;2023-11-19T00:16:31;10.60;99.90
18597;DHT22;9428;50.950;6.912;2023-11-19T00:19:19;10.60;99.90
18597;DHT22;9428;50.950;6.912;2023-11-19T00:22:07;10.60;99.90
18597;DHT22;9428;50.950;6.912;2023-11-19T00:24:56;10.60;99.90
18597;DHT22;9428;50.950;6.912;2023-11-19T00:27:43;10.60;99.90
18597;DHT22;9428;50.950;6.912;2023-11-19T00:30:31;10.60;99.90
18597;DHT22;9428;50.950;6.912;2023-11-19T00:33:18;10.70;99.90
18597;DHT22;9428;50.950;6.912;2023-11-19T00:36:07;10.70;99.90
18597;DHT22;9428;50.950;6.912;2023-11-19T00:38:54;10.70;99.90
18597;DHT22;9428;50.950;6.912;2023-11-19T00:41:44;10.70;99.90
18597;DHT22;9428;50.950;6.912;2023-11-19T00:44:32;10.70;99.90
18597;DHT22;9428;50.950;6.912;2023-11-19T00:47:19;10.10;99.90
18597;DHT22;9428;50.950;6.912;2023-11-19T00:50:07;10.60;99.90
18597;DHT22;9428;50.950;6.912;2023-11-19T00:52:56;10.70;99.90
18597;DHT22;9428;50.950;6.912;2023-11-19T00:55:43;10.70;99.90
18597;DHT22;9428;50.950;6.912;2023-11-19T00:58:32;10.70;99.90
18597;DHT22;9428;50.950;6.912;2023-11-19T01:01:19;10.70;99.90
18597;DHT22;9428;50.950;6.912;2023-11-19T01:04:07;10.80;99.90
18597;DHT22;9428;50.950;6.912;2023-11-19T01:06:55;10.70;99.90
18597;DHT22;9428;50.950;6.912;2023-11-19T01:09:42;10.70;99.90
18597;DHT22;9428;50.950;6.912;2023-11-19T01:12:30;10.70;99.90
18597;DHT22;9428;50.950;6.912;2023-11-19T01:15:20;10.70;99.90
18597;DHT22;9428;50.950;6.912;2023-11-19T01:18:07;10.80;99.90
18597;DHT22;9428;50.950;6.912;2023-11-19T01:20:55;10.70;99.90
18597;DHT22;9428;50.950;6.912;2023-11-19T01:23:43;10.90;99.90
18597;DHT22;9428;50.950;6.912;2023-11-19T01:26:30;10.90;99.90
18597;DHT22;9428;50.950;6.912;2023-11-19T01:29:17;11.00;99.90
18597;DHT22;9428;50.950;6.912;2023-11-19T01:32:07;11.00;99.90
18597;DHT22;9428;50.950;6.912;2023-11-19T01:34:54;11.10;99.90
18597;DHT22;9428;50.950;6.912;2023-11-19T01:37:42;11.10;99.90
18597;DHT22;9428;50.950;6.912;2023-11-19T01:40:29;11.30;99.90
18597;DHT22;9428;50.950;6.912;2023-11-19T01:43:32;11.40;99.90
18597;DHT22;9428;50.950;6.912;2023-11-19T01:46:20;11.60;99.90
18597;DHT22;9428;50.950;6.912;2023-11-19T01:49:09;11.70;99.90
18597;DHT22;9428;50.950;6.912;2023-11-19T01:51:58;11.70;99.90
18597;DHT22;9428;50.950;6.912;2023-11-19T01:54:45;11.90;99.90
18597;DHT22;9428;50.950;6.912;2023-11-19T01:57:33;11.90;99.90
18597;DHT22;9428;50.950;6.912;2023-11-19T02:00:20;11.90;99.90
18597;DHT22;9428;50.950;6.912;2023-11-19T02:03:08;11.80;99.90
18597;DHT22;9428;50.950;6.912;2023-11-19T02:05:56;11.90;99.90
18597;DHT22;9428;50.950;6.912;2023-11-19T02:08:44;11.80;99.90
18597;DHT22;9428;50.950;6.912;2023-11-19T02:11:31;11.90;99.90
18597;DHT22;9428;50.950;6.912;2023-11-19T02:14:19;12.00;99.90
18597;DHT22;9428;50.950;6.912;2023-11-19T02:17:25;12.40;99.90
18597;DHT22;9428;50.950;6.912;2023-11-19T02:20:13;11.90;99.90
18597;DHT22;9428;50.950;6.912;2023-11-19T02:23:02;11.80;99.90
18597;DHT22;9428;50.950;6.912;2023-11-19T02:26:08;11.90;99.90
18597;DHT22;9428;50.950;6.912;2023-11-19T02:28:58;11.90;99.90
18597;DHT22;9428;50.950;6.912;2023-11-19T02:31:46;12.00;99.90
18597;DHT22;9428;50.950;6.912;2023-11-19T02:34:33;11.80;99.90
18597;DHT22;9428;50.950;6.912;2023-11-19T02:37:20;12.00;99.90
18597;DHT22;9428;50.950;6.912;2023-11-19T02:40:08;11.80;99.90
18597;DHT22;9428;50.950;6.912;2023-11-19T02:42:56;11.90;99.90
18597;DHT22;9428;50.950;6.912;2023-11-19T02:45:45;11.90;99.90
18597;DHT22;9428;50.950;6.912;2023-11-19T02:48:33;11.80;99.90
18597;DHT22;9428;50.950;6.912;2023-11-19T02:51:21;11.70;99.90
18597;DHT22;9428;50.950;6.912;2023-11-19T02:54:09;11.70;99.90
18597;DHT22;9428;50.950;6.912;2023-11-19T02:56:56;11.50;99.90
18597;DHT22;9428;50.950;6.912;2023-11-19T02:59:45;11.70;99.90
18597;DHT22;9428;50.950;6.912;2023-11-19T03:02:34;11.60;99.90
18597;DHT22;9428;50.950;6.912;2023-11-19T03:05:29;11.70;99.90
18597;DHT22;9428;50.950;6.912;2023-11-19T03:08:17;11.70;99.90
18597;DHT22;9428;50.950;6.912;2023-11-19T03:11:04;11.60;99.90
18597;DHT22;9428;50.950;6.912;2023-11-19T03:13:51;11.50;99.90
18597;DHT22;9428;50.950;6.912;2023-11-19T03:16:39;11.50;99.90
18597;DHT22;9428;50.950;6.912;2023-11-19T03:19:27;11.70;99.90
18597;DHT22;9428;50.950;6.912;2023-11-19T03:22:15;11.70;99.90
18597;DHT22;9428;50.950;6.912;2023-11-19T03:25:02;11.70;99.90
18597;DHT22;9428;50.950;6.912;2023-11-19T03:27:50;11.70;99.90
18597;DHT22;9428;50.950;6.912;2023-11-19T03:30:37;11.80;99.90
18597;DHT22;9428;50.950;6.912;2023-11-19T03:33:25;11.90;99.90
18597;DHT22;9428;50.950;6.912;2023-11-19T03:36:16;11.90;99.90
18597;DHT22;9428;50.950;6.912;2023-11-19T03:39:03;11.90;99.90
18597;DHT22;9428;50.950;6.912;2023-11-19T03:41:54;11.90;99.90
18597;DHT22;9428;50.950;6.912;2023-11-19T03:44:41;12.00;99.90
18597;DHT22;9428;50.950;6.912;2023-11-19T03:47:28;11.90;99.90
18597;DHT22;9428;50.950;6.912;2023-11-19T03:50:16;12.00;99.90
18597;DHT22;9428;50.950;6.912;2023-11-19T03:53:05;11.90;99.90
18597;DHT22;9428;50.950;6.912;2023-11-19T03:55:53;11.90;99.90
18597;DHT22;9428;50.950;6.912;2023-11-19T03:58:41;11.90;99.90
18597;DHT22;9428;50.950;6.912;2023-11-19T04:01:29;11.90;99.90
18597;DHT22;9428;50.950;6.912;2023-11-19T04:04:16;11.80;99.90
18597;DHT22;9428;50.950;6.912;2023-11-19T04:07:05;11.70;99.90
18597;DHT22;9428;50.950;6.912;2023-11-19T04:09:54;11.80;99.90
18597;DHT22;9428;50.950;6.912;2023-11-19T04:12:41;12.10;99.90
18597;DHT22;9428;50.950;6.912;2023-11-19T04:15:28;11.90;99.90
18597;DHT22;9428;50.950;6.912;2023-11-19T04:18:16;11.90;99.90
18597;DHT22;9428;50.950;6.912;2023-11-19T04:21:06;11.90;99.90
18597;DHT22;9428;50.950;6.912;2023-11-19T04:23:53;11.90;99.90
18597;DHT22;9428;50.950;6.912;2023-11-19T04:26:42;12.00;99.90
18597;DHT22;9428;50.950;6.912;2023-11-19T04:29:32;12.10;99.90
18597;DHT22;9428;50.950;6.912;2023-11-19T04:32:20;12.20;99.90
18597;DHT22;9428;50.950;6.912;2023-11-19T04:35:08;12.10;99.90
18597;DHT22;9428;50.950;6.912;2023-11-19T04:37:56;12.10;99.90
18597;DHT22;9428;50.950;6.912;2023-11-19T04:40:44;12.10;99.90
18597;DHT22;9428;50.950;6.912;2023-11-19T04:43:33;12.00;99.90
18597;DHT22;9428;50.950;6.912;2023-11-19T04:46:20;12.20;99.90
18597;DHT22;9428;50.950;6.912;2023-11-19T04:49:09;12.30;99.90
18597;DHT22;9428;50.950;6.912;2023-11-19T04:51:57;12.40;99.90
18597;DHT22;9428;50.950;6.912;2023-11-19T04:54:45;12.40;99.90
18597;DHT22;9428;50.950;6.912;2023-11-19T04:57:34;12.40;99.90
18597;DHT22;9428;50.950;6.912;2023-11-19T05:00:23;12.30;99.90
18597;DHT22;9428;50.950;6.912;2023-11-19T05:03:10;12.30;99.90
18597;DHT22;9428;50.950;6.912;2023-11-19T05:05:58;12.20;99.90
18597;DHT22;9428;50.950;6.912;2023-11-19T05:08:45;12.20;99.90
18597;DHT22;9428;50.950;6.912;2023-11-19T05:11:32;12.20;99.90
18597;DHT22;9428;50.950;6.912;2023-11-19T05:14:20;12.10;99.90
18597;DHT22;9428;50.950;6.912;2023-11-19T05:17:09;12.40;99.90
18597;DHT22;9428;50.950;6.912;2023-11-19T05:19:56;12.20;99.90
18597;DHT22;9428;50.950;6.912;2023-11-19T05:22:44;12.20;99.90
18597;DHT22;9428;50.950;6.912;2023-11-19T05:25:31;12.10;99.90
18597;DHT22;9428;50.950;6.912;2023-11-19T05:28:21;12.10;99.90
18597;DHT22;9428;50.950;6.912;2023-11-19T05:31:10;12.10;99.90
18597;DHT22;9428;50.950;6.912;2023-11-19T05:33:59;12.10;99.90
18597;DHT22;9428;50.950;6.912;2023-11-19T05:36:46;12.10;99.90
18597;DHT22;9428;50.950;6.912;2023-11-19T05:39:35;12.10;99.90
18597;DHT22;9428;50.950;6.912;2023-11-19T05:42:26;12.20;99.90
18597;DHT22;9428;50.950;6.912;2023-11-19T05:45:13;12.10;99.90
18597;DHT22;9428;50.950;6.912;2023-11-19T05:48:01;12.10;99.90
18597;DHT22;9428;50.950;6.912;2023-11-19T05:50:51;12.10;99.90
18597;DHT22;9428;50.950;6.912;2023-11-19T05:53:39;12.00;99.90
18597;DHT22;9428;50.950;6.912;2023-11-19T05:56:27;12.10;99.90
18597;DHT22;9428;50.950;6.912;2023-11-19T05:59:18;12.10;99.90
18597;DHT22;9428;50.950;6.912;2023-11-19T06:02:05;12.00;99.90
18597;DHT22;9428;50.950;6.912;2023-11-19T06:04:53;12.00;99.90
18597;DHT22;9428;50.950;6.912;2023-11-19T06:07:42;12.10;99.90
18597;DHT22;9428;50.950;6.912;2023-11-19T06:10:32;12.00;99.90
18597;DHT22;9428;50.950;6.912;2023-11-19T06:13:19;12.30;99.90
18597;DHT22;9428;50.950;6.912;2023-11-19T06:16:08;12.20;99.90
18597;DHT22;9428;50.950;6.912;2023-11-19T06:18:55;12.10;99.90
18597;DHT22;9428;50.950;6.912;2023-11-19T06:21:43;12.20;99.90
18597;DHT22;9428;50.950;6.912;2023-11-19T06:24:31;12.30;99.90
18597;DHT22;9428;50.950;6.912;2023-11-19T06:27:21;12.30;99.90
18597;DHT22;9428;50.950;6.912;2023-11-19T06:30:10;12.20;99.90
18597;DHT22;9428;50.950;6.912;2023-11-19T06:32:57;12.30;99.90
18597;DHT22;9428;50.950;6.912;2023-11-19T06:35:45;12.30;99.90
18597;DHT22;9428;50.950;6.912;2023-11-19T06:38:32;12.10;99.90
18597;DHT22;9428;50.950;6.912;2023-11-19T06:41:21;12.20;99.90
18597;DHT22;9428;50.950;6.912;2023-11-19T06:44:08;12.10;99.90
18597;DHT22;9428;50.950;6.912;2023-11-19T06:46:55;12.10;99.90
18597;DHT22;9428;50.950;6.912;2023-11-19T06:49:44;12.10;99.90
18597;DHT22;9428;50.950;6.912;2023-11-19T06:52:31;12.10;99.90
18597;DHT22;9428;50.950;6.912;2023-11-19T06:55:19;12.10;99.90
18597;DHT22;9428;50.950;6.912;2023-11-19T06:58:08;12.10;99.90
18597;DHT22;9428;50.950;6.912;2023-11-19T07:00:55;12.10;99.90
18597;DHT22;9428;50.950;6.912;2023-11-19T07:03:43;12.00;99.90
18597;DHT22;9428;50.950;6.912;2023-11-19T07:06:30;12.10;99.90
18597;DHT22;9428;50.950;6.912;2023-11-19T07:09:18;12.10;99.90
18597;DHT22;9428;50.950;6.912;2023-11-19T07:12:06;12.00;99.90
18597;DHT22;9428;50.950;6.912;2023-11-19T07:14:55;12.00;99.90
18597;DHT22;9428;50.950;6.912;2023-11-19T07:17:42;11.60;99.90
18597;DHT22;9428;50.950;6.912;2023-11-19T07:20:33;12.00;99.90
18597;DHT22;9428;50.950;6.912;2023-11-19T07:23:21;12.00;99.90
18597;DHT22;9428;50.950;6.912;2023-11-19T07:26:08;12.00;99.90
18597;DHT22;9428;50.950;6.912;2023-11-19T07:28:56;12.00;99.90
18597;DHT22;9428;50.950;6.912;2023-11-19T07:31:45;11.90;99.90
18597;DHT22;9428;50.950;6.912;2023-11-19T07:34:32;11.90;99.90
18597;DHT22;9428;50.950;6.912;2023-11-19T07:37:21;12.00;99.90
18597;DHT22;9428;50.950;6.912;2023-11-19T07:40:09;12.00;99.90
18597;DHT22;9428;50.950;6.912;2023-11-19T07:42:57;12.00;99.90
18597;DHT22;9428;50.950;6.912;2023-11-19T07:45:44;11.90;99.90
18597;DHT22;9428;50.950;6.912;2023-11-19T07:48:33;12.00;99.90
18597;DHT22;9428;50.950;6.912;2023-11-19T07:51:22;11.90;99.90
18597;DHT22;9428;50.950;6.912;2023-11-19T07:54:09;11.90;99.90
18597;DHT22;9428;50.950;6.912;2023-11-19T07:56:56;11.90;99.90
18597;DHT22;9428;50.950;6.912;2023-11-19T07:59:44;12.00;99.90
18597;DHT22;9428;50.950;6.912;2023-11-19T08:02:31;11.90;99.90
18597;DHT22;9428;50.950;6.912;2023-11-19T08:05:21;12.00;99.90
18597;DHT22;9428;50.950;6.912;2023-11-19T08:08:10;12.00;99.90
18597;DHT22;9428;50.950;6.912;2023-11-19T08:10:57;12.00;99.90
18597;DHT22;9428;50.950;6.912;2023-11-19T08:13:45;11.90;99.90
18597;DHT22;9428;50.950;6.912;2023-11-19T08:16:32;11.90;99.90
18597;DHT22;9428;50.950;6.912;2023-11-19T08:19:20;11.90;99.90
18597;DHT22;9428;50.950;6.912;2023-11-19T08:22:09;11.90;99.90
18597;DHT22;9428;50.950;6.912;2023-11-19T08:24:56;11.80;99.90
18597;DHT22;9428;50.950;6.912;2023-11-19T08:27:43;11.90;99.90
18597;DHT22;9428;50.950;6.912;2023-11-19T08:30:31;12.30;99.90
18597;DHT22;9428;50.950;6.912;2023-11-19T08:33:19;12.00;99.90
18597;DHT22;9428;50.950;6.912;2023-11-19T08:36:09;12.20;99.90
18597;DHT22;9428;50.950;6.912;2023-11-19T08:39:03;12.10;99.90
18597;DHT22;9428;50.950;6.912;2023-11-19T08:41:50;12.20;99.90
18597;DHT22;9428;50.950;6.912;2023-11-19T08:44:38;12.20;99.90
18597;DHT22;9428;50.950;6.912;2023-11-19T08:47:26;12.10;99.90
18597;DHT22;9428;50.950;6.912;2023-11-19T08:50:14;12.10;99.90
18597;DHT22;9428;50.950;6.912;2023-11-19T08:53:01;12.00;99.90
18597;DHT22;9428;50.950;6.912;2023-11-19T08:55:53;12.40;99.90
18597;DHT22;9428;50.950;6.912;2023-11-19T08:58:41;12.20;99.90
18597;DHT22;9428;50.950;6.912;2023-11-19T09:01:28;12.20;99.90
18597;DHT22;9428;50.950;6.912;2023-11-19T09:04:15;12.10;99.90
18597;DHT22;9428;50.950;6.912;2023-11-19T09:07:03;12.20;99.90
18597;DHT22;9428;50.950;6.912;2023-11-19T09:09:51;12.20;99.90
18597;DHT22;9428;50.950;6.912;2023-11-19T09:12:39;12.30;99.90
18597;DHT22;9428;50.950;6.912;2023-11-19T09:15:27;12.70;99.90
18597;DHT22;9428;50.950;6.912;2023-11-19T09:18:14;12.40;99.90
18597;DHT22;9428;50.950;6.912;2023-11-19T09:21:02;12.60;99.90
18597;DHT22;9428;50.950;6.912;2023-11-19T09:23:49;12.60;99.90
18597;DHT22;9428;50.950;6.912;2023-11-19T09:26:36;12.60;99.90
18597;DHT22;9428;50.950;6.912;2023-11-19T09:29:27;12.50;99.90
18597;DHT22;9428;50.950;6.912;2023-11-19T09:32:14;12.50;99.90
18597;DHT22;9428;50.950;6.912;2023-11-19T09:35:05;12.50;99.90
18597;DHT22;9428;50.950;6.912;2023-11-19T09:37:52;12.50;99.90
18597;DHT22;9428;50.950;6.912;2023-11-19T09:40:40;12.50;99.90
18597;DHT22;9428;50.950;6.912;2023-11-19T09:43:28;12.70;99.90
18597;DHT22;9428;50.950;6.912;2023-11-19T09:46:18;12.70;99.90
18597;DHT22;9428;50.950;6.912;2023-11-19T09:49:06;12.90;99.90
18597;DHT22;9428;50.950;6.912;2023-11-19T09:51:55;12.90;99.90
18597;DHT22;9428;50.950;6.912;2023-11-19T09:54:42;12.90;99.90
18597;DHT22;9428;50.950;6.912;2023-11-19T09:57:31;13.20;99.90
18597;DHT22;9428;50.950;6.912;2023-11-19T10:00:20;12.90;99.90
18597;DHT22;9428;50.950;6.912;2023-11-19T10:03:11;12.60;99.90
18597;DHT22;9428;50.950;6.912;2023-11-19T10:06:01;12.90;99.90
18597;DHT22;9428;50.950;6.912;2023-11-19T10:08:49;12.90;99.90
18597;DHT22;9428;50.950;6.912;2023-11-19T10:11:36;12.90;99.90
18597;DHT22;9428;50.950;6.912;2023-11-19T10:14:24;13.00;99.90
18597;DHT22;9428;50.950;6.912;2023-11-19T10:17:11;13.00;99.90
18597;DHT22;9428;50.950;6.912;2023-11-19T10:20:01;12.90;99.90
18597;DHT22;9428;50.950;6.912;2023-11-19T10:22:55;12.90;99.90
18597;DHT22;9428;50.950;6.912;2023-11-19T10:25:43;13.00;99.90
18597;DHT22;9428;50.950;6.912;2023-11-19T10:28:39;13.20;99.90
18597;DHT22;9428;50.950;6.912;2023-11-19T10:31:28;13.30;99.90
18597;DHT22;9428;50.950;6.912;2023-11-19T10:34:25;13.20;99.90
18597;DHT22;9428;50.950;6.912;2023-11-19T10:37:27;13.20;99.90
18597;DHT22;9428;50.950;6.912;2023-11-19T10:40:15;13.20;99.90
18597;DHT22;9428;50.950;6.912;2023-11-19T10:43:03;13.30;99.90
18597;DHT22;9428;50.950;6.912;2023-11-19T10:45:51;13.30;99.90
18597;DHT22;9428;50.950;6.912;2023-11-19T10:48:38;13.40;99.90
18597;DHT22;9428;50.950;6.912;2023-11-19T10:51:28;13.40;99.90
18597;DHT22;9428;50.950;6.912;2023-11-19T10:54:19;13.30;99.90
18597;DHT22;9428;50.950;6.912;2023-11-19T10:57:12;13.30;99.90
18597;DHT22;9428;50.950;6.912;2023-11-19T11:00:07;13.30;99.90
18597;DHT22;9428;50.950;6.912;2023-11-19T11:03:01;13.40;99.90
18597;DHT22;9428;50.950;6.912;2023-11-19T11:05:50;13.80;99.90
18597;DHT22;9428;50.950;6.912;2023-11-19T11:08:38;13.40;99.90
18597;DHT22;9428;50.950;6.912;2023-11-19T11:11:27;13.30;99.90
18597;DHT22;9428;50.950;6.912;2023-11-19T11:14:16;13.30;99.90
18597;DHT22;9428;50.950;6.912;2023-11-19T11:17:07;13.30;99.90
18597;DHT22;9428;50.950;6.912;2023-11-19T11:19:57;13.30;99.90
18597;DHT22;9428;50.950;6.912;2023-11-19T11:22:53;13.40;99.90
18597;DHT22;9428;50.950;6.912;2023-11-19T11:25:51;13.30;99.90
18597;DHT22;9428;50.950;6.912;2023-11-19T11:28:52;13.20;99.90
18597;DHT22;9428;50.950;6.912;2023-11-19T11:31:48;13.10;99.90
18597;DHT22;9428;50.950;6.912;2023-11-19T11:34:58;13.20;99.90
18597;DHT22;9428;50.950;6.912;2023-11-19T11:37:50;13.40;99.90
18597;DHT22;9428;50.950;6.912;2023-11-19T11:40:42;13.50;99.90
18597;DHT22;9428;50.950;6.912;2023-11-19T11:43:48;13.40;99.90
18597;DHT22;9428;50.950;6.912;2023-11-19T11:46:55;13.40;99.90
18597;DHT22;9428;50.950;6.912;2023-11-19T11:49:42;13.40;99.90
18597;DHT22;9428;50.950;6.912;2023-11-19T11:52:30;13.20;99.90
18597;DHT22;9428;50.950;6.912;2023-11-19T11:55:17;13.30;99.90
18597;DHT22;9428;50.950;6.912;2023-11-19T11:58:05;13.20;99.90
18597;DHT22;9428;50.950;6.912;2023-11-19T12:00:54;13.20;99.90
18597;DHT22;9428;50.950;6.912;2023-11-19T12:03:44;13.20;99.90
18597;DHT22;9428;50.950;6.912;2023-11-19T12:06:32;13.30;99.90
18597;DHT22;9428;50.950;6.912;2023-11-19T12:09:20;13.50;99.90
18597;DHT22;9428;50.950;6.912;2023-11-19T12:12:13;13.40;99.90
18597;DHT22;9428;50.950;6.912;2023-11-19T12:15:06;13.50;99.90
18597;DHT22;9428;50.950;6.912;2023-11-19T12:17:56;13.50;99.90
18597;DHT22;9428;50.950;6.912;2023-11-19T12:20:44;14.10;99.90
18597;DHT22;9428;50.950;6.912;2023-11-19T12:23:32;13.50;99.90
18597;DHT22;9428;50.950;6.912;2023-11-19T12:26:34;13.50;99.90
18597;DHT22;9428;50.950;6.912;2023-11-19T12:29:21;13.50;99.90
18597;DHT22;9428;50.950;6.912;2023-11-19T12:32:09;13.60;99.90
18597;DHT22;9428;50.950;6.912;2023-11-19T12:34:58;13.60;99.90
18597;DHT22;9428;50.950;6.912;2023-11-19T12:37:46;13.60;99.90
18597;DHT22;9428;50.950;6.912;2023-11-19T12:40:34;13.70;99.90
18597;DHT22;9428;50.950;6.912;2023-11-19T12:43:22;13.00;99.90
18597;DHT22;9428;50.950;6.912;2023-11-19T12:46:17;13.70;99.90
18597;DHT22;9428;50.950;6.912;2023-11-19T12:49:05;13.60;99.90
18597;DHT22;9428;50.950;6.912;2023-11-19T12:51:54;13.60;99.90
18597;DHT22;9428;50.950;6.912;2023-11-19T12:54:41;13.60;99.90
18597;DHT22;9428;50.950;6.912;2023-11-19T12:57:38;13.50;99.90
18597;DHT22;9428;50.950;6.912;2023-11-19T13:00:27;13.50;99.90
18597;DHT22;9428;50.950;6.912;2023-11-19T13:03:29;13.50;99.90
18597;DHT22;9428;50.950;6.912;2023-11-19T13:06:17;13.50;99.90
18597;DHT22;9428;50.950;6.912;2023-11-19T13:09:08;13.50;99.90
18597;DHT22;9428;50.950;6.912;2023-11-19T13:11:59;13.50;99.90
18597;DHT22;9428;50.950;6.912;2023-11-19T13:14:49;13.40;99.90
18597;DHT22;9428;50.950;6.912;2023-11-19T13:17:37;13.50;99.90
18597;DHT22;9428;50.950;6.912;2023-11-19T13:20:24;13.50;99.90
18597;DHT22;9428;50.950;6.912;2023-11-19T13:23:11;13.50;99.90
18597;DHT22;9428;50.950;6.912;2023-11-19T13:26:02;13.50;99.90
18597;DHT22;9428;50.950;6.912;2023-11-19T13:28:50;13.40;99.90
18597;DHT22;9428;50.950;6.912;2023-11-19T13:31:38;13.30;99.90
18597;DHT22;9428;50.950;6.912;2023-11-19T13:34:25;13.40;99.90
18597;DHT22;9428;50.950;6.912;2023-11-19T13:37:12;13.40;99.90
18597;DHT22;9428;50.950;6.912;2023-11-19T13:39:59;13.40;99.90
18597;DHT22;9428;50.950;6.912;2023-11-19T13:42:48;13.50;99.90
18597;DHT22;9428;50.950;6.912;2023-11-19T13:45:35;13.50;99.90
18597;DHT22;9428;50.950;6.912;2023-11-19T13:48:23;13.50;99.90
18597;DHT22;9428;50.950;6.912;2023-11-19T13:51:10;13.40;99.90
18597;DHT22;9428;50.950;6.912;2023-11-19T13:53:58;13.50;99.90
18597;DHT22;9428;50.950;6.912;2023-11-19T13:56:45;13.60;99.90
18597;DHT22;9428;50.950;6.912;2023-11-19T13:59:39;13.60;99.90
18597;DHT22;9428;50.950;6.912;2023-11-19T14:02:27;13.60;99.90
18597;DHT22;9428;50.950;6.912;2023-11-19T14:05:14;13.60;99.90
18597;DHT22;9428;50.950;6.912;2023-11-19T14:08:03;13.60;99.90
18597;DHT22;9428;50.950;6.912;2023-11-19T14:10:57;13.20;99.90
18597;DHT22;9428;50.950;6.912;2023-11-19T14:13:44;13.60;99.90
18597;DHT22;9428;50.950;6.912;2023-11-19T14:16:33;13.60;99.90
18597;DHT22;9428;50.950;6.912;2023-11-19T14:19:21;13.50;99.90
18597;DHT22;9428;50.950;6.912;2023-11-19T14:22:08;13.50;99.90
18597;DHT22;9428;50.950;6.912;2023-11-19T14:24:55;13.60;99.90
18597;DHT22;9428;50.950;6.912;2023-11-19T14:27:44;13.90;99.90
18597;DHT22;9428;50.950;6.912;2023-11-19T14:30:31;13.50;99.90
18597;DHT22;9428;50.950;6.912;2023-11-19T14:33:21;13.60;99.90
18597;DHT22;9428;50.950;6.912;2023-11-19T14:36:08;13.50;99.90
18597;DHT22;9428;50.950;6.912;2023-11-19T14:38:56;13.60;99.90
18597;DHT22;9428;50.950;6.912;2023-11-19T14:41:44;13.50;99.90
18597;DHT22;9428;50.950;6.912;2023-11-19T14:44:32;13.50;99.90
18597;DHT22;9428;50.950;6.912;2023-11-19T14:47:19;13.60;99.90
18597;DHT22;9428;50.950;6.912;2023-11-19T14:50:09;13.50;99.90
18597;DHT22;9428;50.950;6.912;2023-11-19T14:52:56;13.50;99.90
18597;DHT22;9428;50.950;6.912;2023-11-19T14:55:44;13.80;99.90
18597;DHT22;9428;50.950;6.912;2023-11-19T14:58:31;13.30;99.90
18597;DHT22;9428;50.950;6.912;2023-11-19T15:01:19;13.30;99.90
18597;DHT22;9428;50.950;6.912;2023-11-19T15:04:06;13.30;99.90
18597;DHT22;9428;50.950;6.912;2023-11-19T15:06:56;13.20;99.90
18597;DHT22;9428;50.950;6.912;2023-11-19T15:09:44;13.30;99.90
18597;DHT22;9428;50.950;6.912;2023-11-19T15:12:31;13.30;99.90
18597;DHT22;9428;50.950;6.912;2023-11-19T15:15:18;12.50;99.90
18597;DHT22;9428;50.950;6.912;2023-11-19T15:18:06;13.30;99.90
18597;DHT22;9428;50.950;6.912;2023-11-19T15:20:53;13.20;99.90
18597;DHT22;9428;50.950;6.912;2023-11-19T15:23:42;13.20;99.90
18597;DHT22;9428;50.950;6.912;2023-11-19T15:26:29;13.10;99.90
18597;DHT22;9428;50.950;6.912;2023-11-19T15:29:19;13.00;99.90
18597;DHT22;9428;50.950;6.912;2023-11-19T15:32:06;13.00;99.90
18597;DHT22;9428;50.950;6.912;2023-11-19T15:34:55;12.90;99.90
18597;DHT22;9428;50.950;6.912;2023-11-19T15:37:43;12.90;99.90
18597;DHT22;9428;50.950;6.912;2023-11-19T15:40:32;13.00;99.90
18597;DHT22;9428;50.950;6.912;2023-11-19T15:43:19;12.70;99.90
18597;DHT22;9428;50.950;6.912;2023-11-19T15:46:07;13.20;99.90
18597;DHT22;9428;50.950;6.912;2023-11-19T15:48:54;12.60;99.90
18597;DHT22;9428;50.950;6.912;2023-11-19T15:51:44;12.80;99.90
18597;DHT22;9428;50.950;6.912;2023-11-19T15:54:32;12.50;99.90
18597;DHT22;9428;50.950;6.912;2023-11-19T15:57:21;12.40;99.90
18597;DHT22;9428;50.950;6.912;2023-11-19T16:00:11;12.60;99.90
18597;DHT22;9428;50.950;6.912;2023-11-19T16:03:02;12.50;99.90
18597;DHT22;9428;50.950;6.912;2023-11-19T16:05:49;12.50;99.90
18597;DHT22;9428;50.950;6.912;2023-11-19T16:08:37;12.60;99.90
18597;DHT22;9428;50.950;6.912;2023-11-19T16:11:25;12.60;99.90
18597;DHT22;9428;50.950;6.912;2023-11-19T16:14:14;13.30;99.90
18597;DHT22;9428;50.950;6.912;2023-11-19T16:17:01;12.60;99.90
18597;DHT22;9428;50.950;6.912;2023-11-19T16:19:48;13.20;99.90
18597;DHT22;9428;50.950;6.912;2023-11-19T16:22:36;12.60;99.90
18597;DHT22;9428;50.950;6.912;2023-11-19T16:25:23;12.60;99.90
18597;DHT22;9428;50.950;6.912;2023-11-19T16:28:10;12.60;99.90
18597;DHT22;9428;50.950;6.912;2023-11-19T16:30:59;12.60;99.90
18597;DHT22;9428;50.950;6.912;2023-11-19T16:33:46;12.60;99.90
18597;DHT22;9428;50.950;6.912;2023-11-19T16:36:34;12.50;99.90
18597;DHT22;9428;50.950;6.912;2023-11-19T16:39:21;12.50;99.90
18597;DHT22;9428;50.950;6.912;2023-11-19T16:42:08;12.50;99.90
18597;DHT22;9428;50.950;6.912;2023-11-19T16:44:56;12.60;99.90
18597;DHT22;9428;50.950;6.912;2023-11-19T16:47:44;12.90;99.90
18597;DHT22;9428;50.950;6.912;2023-11-19T16:50:32;12.50;99.90
18597;DHT22;9428;50.950;6.912;2023-11-19T16:53:19;12.90;99.90
18597;DHT22;9428;50.950;6.912;2023-11-19T16:56:07;12.60;99.90
18597;DHT22;9428;50.950;6.912;2023-11-19T16:58:54;12.00;99.90
18597;DHT22;9428;50.950;6.912;2023-11-19T17:01:42;12.60;99.90
18597;DHT22;9428;50.950;6.912;2023-11-19T17:04:32;12.60;99.90
18597;DHT22;9428;50.950;6.912;2023-11-19T17:07:19;12.60;99.90
18597;DHT22;9428;50.950;6.912;2023-11-19T17:10:09;12.50;99.90
18597;DHT22;9428;50.950;6.912;2023-11-19T17:12:56;12.60;99.90
18597;DHT22;9428;50.950;6.912;2023-11-19T17:15:43;12.60;99.90
18597;DHT22;9428;50.950;6.912;2023-11-19T17:18:31;12.60;99.90
18597;DHT22;9428;50.950;6.912;2023-11-19T17:21:19;12.70;99.90
18597;DHT22;9428;50.950;6.912;2023-11-19T17:24:07;12.50;99.90
18597;DHT22;9428;50.950;6.912;2023-11-19T17:26:54;12.60;99.90
18597;DHT22;9428;50.950;6.912;2023-11-19T17:29:42;12.60;99.90
18597;DHT22;9428;50.950;6.912;2023-11-19T17:32:29;12.70;99.90
18597;DHT22;9428;50.950;6.912;2023-11-19T17:35:18;12.70;99.90
18597;DHT22;9428;50.950;6.912;2023-11-19T17:38:06;12.80;99.90
18597;DHT22;9428;50.950;6.912;2023-11-19T17:40:54;12.80;99.90
18597;DHT22;9428;50.950;6.912;2023-11-19T17:43:42;12.80;99.90
18597;DHT22;9428;50.950;6.912;2023-11-19T17:46:32;12.80;99.90
18597;DHT22;9428;50.950;6.912;2023-11-19T17:49:19;12.80;99.90
18597;DHT22;9428;50.950;6.912;2023-11-19T17:52:07;12.70;99.90
18597;DHT22;9428;50.950;6.912;2023-11-19T17:54:59;12.70;99.90
18597;DHT22;9428;50.950;6.912;2023-11-19T17:57:49;13.10;99.90
18597;DHT22;9428;50.950;6.912;2023-11-19T18:00:36;12.80;99.90
18597;DHT22;9428;50.950;6.912;2023-11-19T18:03:24;12.70;99.90